Maury City, Tennessee
Current Conditions -  °F | °C
As of 3:35 AM on Friday 28 Nov 2014 (Local Time) from KDYR Reporting Station
Clear Clear  
Wind Chill: 23°   Ceiling: Unl
Heat Index: 28°   Visibility: 10mi
Dew Point: 16°   Wind: 5mph
Humidity: 59%   Direction: 160°SSE
Pressure: 30.43"   Gusts: NA
Location:  35.81°N, 89.23°W
Report Text: KDYR 280935Z 16004KT 10SM CLR M02/M09 A3043 RMK AO1
Loading
Personal Weather Stations






























Interactive Weather Map New forecast layout! Learn more

10-Day Weather Forecast

Advertisements
Track Severe Weather on mobile